Applegate, OR

5:20 AM PDT on September 04, 2015 (GMT -0700)
Buncom | | Change Station
CLOSE
Current Station
Personal Weather Station
Location: Jacksonville, OR
Elevation: 1959 ft
Nearby Weather Stations

Elev 1959 ft 42.17 °N, 122.99 °W | Updated 3 minutes ago

Clear
Clear
40.5 °F
Feels Like 40 °F
N
0.0
Wind Variable Wind from SE
Gusts 0.0 mph

Today
High -- | Low -- °F
--% Chance of Precip.
Yesterday
High -- | Low -- °F
Precip. -- in
6:40 AM 7:41 PM
Waning Gibbous, 60% visible
Pressure 29.93 in
Visibility 10.0 miles
Clouds Clear
Windchill 40 °F
Dew Point 34 °F
Humidity 79%
Rainfall 0.00 in
Snow Depth Not available.
UV 0 out of 12
Pollen 4.60 out of 12
Air Quality Not available.
Flu Activity Not available.
METAR KMFR 041153Z AUTO 00000KT 10SM CLR 08/03 A2994 RMK AO2 SLP133 T00780033 10150 20078 55001
Pressure 29.93 in
Visibility 10.0 miles
Clouds Clear
Windchill 40 °F
Dew Point 34 °F
Humidity 79%
Rainfall 0.00 in
Snow Depth Not available.
UV 0 out of 12
Pollen 4.60 out of 12
Air Quality Not available.
Flu Activity Not available.
METAR KMFR 041153Z AUTO 00000KT 10SM CLR 08/03 A2994 RMK AO2 SLP133 T00780033 10150 20078 55001

10-Day Weather Forecast

×

Almanac

Astronomy

Sep. 04, 2015 Rise Set
Actual Time
Civil Twilight
Nautical Twilight
Astronomical Twilight
Moon
Length of Visible Light
Length of Day
Tomorrow will be .
, % of the Moon is Illuminated

Today's Extremes

State Highs State Lows

Community

WunderPhotos

Upload Photos

1,852,160 photos uploaded!

WunderBlogs® & News

Nearby

Air Quality

  Air Quality AQ Index Pollutant
Not available.

Snow Depth

Station Depth Elevation

Earthquake Activity

City Distance Mag. Time & Date
Minimum magnitude displayed is 2.5.

Coastal Water Temperatures

Place Temperature

Stations

Nearby Weather Stations

Station Location Temp. Windchill Dew Point Humidity Wind Precip. Elev Updated Type